Time;durP1;ratioP1;P1;durP2;ratioP2;P2;SDS_P1;SDS_P2;PMS_P1;PMS_P2;Temp;Humidity;BMP_temperature;BMP_pressure;BME280_temperature;BME280_humidity;BME280_pressure;Samples;Min_cycle;Max_cycle;Signal;HPM_P1;HPM_P2
2022/08/11 00:01:34;;;;;;;6.13;2.10;;;;;;;12.40;100.00;99724.98;2210991;80;20976;-68
2022/08/11 00:04:35;;;;;;;8.67;2.83;;;;;;;12.18;100.00;99719.17;2219112;79;21150;-71
2022/08/11 00:07:37;;;;;;;4.83;1.77;;;;;;;12.11;100.00;99722.14;2223914;79;21006;-68
2022/08/11 00:10:40;;;;;;;4.85;1.90;;;;;;;12.07;100.00;99726.33;2188750;80;21004;-72
2022/08/11 00:13:44;;;;;;;6.85;2.20;;;;;;;12.02;100.00;99724.39;2251344;78;21575;-70
2022/08/11 00:16:45;;;;;;;5.03;2.30;;;;;;;12.05;100.00;99725.55;2224785;78;21419;-71
2022/08/11 00:19:47;;;;;;;9.80;2.95;;;;;;;12.03;100.00;99721.68;2219269;79;21139;-71
2022/08/11 00:22:49;;;;;;;10.95;3.20;;;;;;;12.08;100.00;99721.43;2218840;79;21510;-72
2022/08/11 00:25:51;;;;;;;10.13;3.13;;;;;;;12.20;100.00;99720.80;2220474;79;21024;-72
2022/08/11 00:28:53;;;;;;;16.27;3.80;;;;;;;12.21;100.00;99727.77;2221689;79;21000;-72
2022/08/11 00:31:54;;;;;;;14.47;4.00;;;;;;;12.16;100.00;99720.56;2221755;79;21158;-72
2022/08/11 00:34:56;;;;;;;15.95;4.37;;;;;;;12.17;100.00;99720.96;2217867;79;21609;-71
2022/08/11 00:37:57;;;;;;;10.40;3.60;;;;;;;12.18;100.00;99720.01;2216819;80;20995;-67
2022/08/11 00:40:59;;;;;;;13.27;3.70;;;;;;;12.17;100.00;99723.59;2251919;78;21022;-70
2022/08/11 00:44:00;;;;;;;15.23;3.87;;;;;;;12.13;100.00;99713.69;2209597;80;20981;-68
2022/08/11 00:47:02;;;;;;;12.07;3.65;;;;;;;12.12;100.00;99719.90;2210884;79;20980;-68
2022/08/11 00:50:03;;;;;;;10.28;3.40;;;;;;;12.02;100.00;99714.72;2218009;79;20950;-70
2022/08/11 00:53:05;;;;;;;15.77;3.83;;;;;;;11.98;100.00;99716.28;2208935;80;21031;-71
2022/08/11 00:56:06;;;;;;;15.25;4.03;;;;;;;12.03;100.00;99715.59;2250808;78;21018;-71
2022/08/11 00:59:08;;;;;;;16.80;4.43;;;;;;;11.99;100.00;99712.25;2211997;79;21009;-69
2022/08/11 01:02:09;;;;;;;20.37;5.33;;;;;;;11.97;100.00;99714.13;2212886;79;21543;-70
2022/08/11 01:05:10;;;;;;;8.47;2.63;;;;;;;11.99;100.00;99714.05;2213123;79;20978;-71
2022/08/11 01:08:12;;;;;;;12.63;3.57;;;;;;;11.96;100.00;99718.99;2212732;80;21139;-70
2022/08/11 01:11:13;;;;;;;12.57;3.40;;;;;;;11.92;100.00;99714.79;2213857;79;20981;-69
2022/08/11 01:14:15;;;;;;;16.32;4.58;;;;;;;11.96;100.00;99715.89;2216748;79;21107;-72
2022/08/11 01:17:16;;;;;;;15.83;3.77;;;;;;;11.92;100.00;99716.10;2214902;80;21463;-70
2022/08/11 01:20:18;;;;;;;14.83;4.15;;;;;;;11.85;100.00;99718.67;2210086;79;21011;-69
2022/08/11 01:23:20;;;;;;;18.10;5.00;;;;;;;11.86;100.00;99724.31;2207565;80;21055;-69
2022/08/11 01:26:21;;;;;;;19.93;5.53;;;;;;;11.88;100.00;99722.00;2209555;79;21011;-69
2022/08/11 01:29:22;;;;;;;23.15;5.87;;;;;;;11.89;100.00;99717.11;2214916;80;21000;-69
2022/08/11 01:32:26;;;;;;;9.10;2.60;;;;;;;11.92;100.00;99712.16;2206544;80;21026;-68
2022/08/11 01:35:27;;;;;;;13.20;3.72;;;;;;;11.79;100.00;99721.15;2192951;80;20969;-68
2022/08/11 01:38:29;;;;;;;13.13;3.83;;;;;;;11.77;100.00;99721.23;2217721;79;20968;-68
2022/08/11 01:44:36;;;;;;;12.73;3.90;;;;;;;11.77;100.00;99717.28;2213995;79;21472;-69
2022/08/11 01:50:40;;;;;;;10.15;3.22;;;;;;;11.83;100.00;99719.23;2199538;79;20997;-68
2022/08/11 01:53:42;;;;;;;13.30;3.80;;;;;;;11.79;100.00;99726.41;2210934;79;21088;-69
2022/08/11 01:56:43;;;;;;;12.35;3.30;;;;;;;11.83;100.00;99720.06;2213253;79;21096;-69
2022/08/11 01:59:48;;;;;;;11.43;3.53;;;;;;;11.98;100.00;99726.80;2210786;79;21008;-68
2022/08/11 02:02:48;;;;;;;10.88;3.62;;;;;;;12.05;100.00;99716.34;2188456;79;21087;-70
2022/08/11 02:05:50;;;;;;;11.03;3.52;;;;;;;12.16;100.00;99726.30;2210645;79;21103;-70
2022/08/11 02:08:51;;;;;;;11.80;3.80;;;;;;;12.25;100.00;99724.01;2212090;79;20965;-69
2022/08/11 02:11:53;;;;;;;11.17;3.80;;;;;;;12.25;100.00;99720.06;2209522;80;21073;-71
2022/08/11 02:14:54;;;;;;;11.40;3.62;;;;;;;12.34;100.00;99712.17;2209688;80;20992;-70
2022/08/11 02:17:56;;;;;;;15.58;3.60;;;;;;;12.33;100.00;99710.94;2212040;79;21048;-67
2022/08/11 02:24:01;;;;;;;14.95;4.50;;;;;;;12.30;100.00;99710.63;2194085;80;21149;-71
2022/08/11 02:27:02;;;;;;;11.60;3.80;;;;;;;12.28;100.00;99712.48;2208806;80;21067;-70
2022/08/11 02:30:06;;;;;;;12.28;3.87;;;;;;;12.35;100.00;99711.22;2211837;79;21036;-68
2022/08/11 02:36:10;;;;;;;16.65;4.40;;;;;;;12.26;100.00;99714.36;2193598;80;21044;-69
2022/08/11 02:39:12;;;;;;;15.38;4.62;;;;;;;12.23;100.00;99713.21;2210493;79;21568;-59
2022/08/11 02:45:17;;;;;;;9.05;2.90;;;;;;;12.16;100.00;99710.05;2197179;79;20994;-65
2022/08/11 02:51:22;;;;;;;12.95;3.72;;;;;;;12.02;100.00;99708.62;2198470;79;21013;-63
2022/08/11 02:54:23;;;;;;;13.40;3.98;;;;;;;11.93;100.00;99711.23;2207995;80;21079;-62
2022/08/11 02:57:25;;;;;;;15.63;4.30;;;;;;;11.83;100.00;99713.49;2218975;79;21583;-63
2022/08/11 03:00:26;;;;;;;9.50;3.10;;;;;;;11.74;100.00;99709.56;2219577;79;21023;-69
2022/08/11 03:03:28;;;;;;;8.68;2.90;;;;;;;11.69;100.00;99705.47;2220660;79;21121;-65
2022/08/11 03:06:29;;;;;;;8.10;2.55;;;;;;;11.63;100.00;99709.74;2207071;80;20999;-71
2022/08/11 03:09:31;;;;;;;9.30;2.95;;;;;;;11.35;100.00;99711.12;2250212;78;21051;-69
2022/08/11 03:18:39;;;;;;;8.70;2.98;;;;;;;11.25;100.00;99710.75;2217705;79;21032;-69
2022/08/11 03:21:42;;;;;;;7.50;2.60;;;;;;;11.15;100.00;99705.10;2219529;79;21524;-67
2022/08/11 03:24:44;;;;;;;15.63;3.25;;;;;;;11.07;100.00;99702.00;2220061;79;21075;-70
2022/08/11 03:27:45;;;;;;;45.57;4.90;;;;;;;11.24;100.00;99709.88;2221085;79;21104;-71
2022/08/11 03:30:47;;;;;;;19.60;3.90;;;;;;;11.36;100.00;99708.89;2217062;79;21051;-62
2022/08/11 03:36:52;;;;;;;15.43;3.58;;;;;;;11.33;100.00;99711.67;2177199;80;21023;-59
2022/08/11 03:39:53;;;;;;;11.95;3.70;;;;;;;11.38;100.00;99710.99;2212049;80;21027;-59
2022/08/11 03:42:55;;;;;;;6.25;1.47;;;;;;;11.40;100.00;99709.13;2221235;79;21062;-58
2022/08/11 03:45:56;;;;;;;14.40;4.10;;;;;;;11.41;100.00;99712.98;2234829;79;21032;-59
2022/08/11 03:49:00;;;;;;;14.20;3.80;;;;;;;11.39;100.00;99710.91;2160171;80;20990;-58
2022/08/11 03:52:01;;;;;;;15.30;4.50;;;;;;;11.54;100.00;99720.26;2203576;80;21009;-64
2022/08/11 03:55:03;;;;;;;10.80;2.83;;;;;;;11.63;100.00;99714.52;2206314;80;21047;-61
2022/08/11 03:58:04;;;;;;;5.70;1.90;;;;;;;11.73;100.00;99714.91;2203430;80;21102;-60
2022/08/11 04:01:06;;;;;;;10.10;3.00;;;;;;;11.84;100.00;99719.14;2202879;80;21075;-59
2022/08/11 04:04:07;;;;;;;8.83;2.90;;;;;;;11.92;100.00;99710.84;2204138;80;21565;-60
2022/08/11 04:07:09;;;;;;;6.20;2.27;;;;;;;12.08;100.00;99719.67;2241784;79;20985;-72
2022/08/11 04:10:11;;;;;;;6.33;2.10;;;;;;;12.21;100.00;99719.87;2242746;79;21460;-72
2022/08/11 04:13:12;;;;;;;6.42;2.50;;;;;;;12.28;100.00;99717.30;2243192;79;21052;-71
2022/08/11 04:16:14;;;;;;;3.17;1.32;;;;;;;12.29;100.00;99718.13;2241201;79;21519;-71
2022/08/11 04:19:16;;;;;;;5.00;1.60;;;;;;;12.14;100.00;99718.50;2246474;79;21052;-69
2022/08/11 04:22:17;;;;;;;32.10;2.83;;;;;;;12.26;100.00;99716.98;2247083;79;21586;-72
2022/08/11 04:25:19;;;;;;;18.53;3.33;;;;;;;12.55;100.00;99717.18;2243164;79;21075;-73
2022/08/11 04:28:20;;;;;;;12.28;3.05;;;;;;;12.78;100.00;99723.32;2245277;79;20985;-72
2022/08/11 04:31:22;;;;;;;14.10;3.30;;;;;;;12.98;100.00;99711.67;2243315;79;21037;-72
2022/08/11 04:34:23;;;;;;;19.87;4.67;;;;;;;13.26;100.00;99711.42;2245098;79;21036;-72
2022/08/11 04:40:28;;;;;;;21.65;6.47;;;;;;;13.90;100.00;99709.87;2219789;79;21024;-72
2022/08/11 04:43:29;;;;;;;19.30;5.37;;;;;;;14.18;100.00;99708.20;2244271;79;20985;-70
2022/08/11 04:46:31;;;;;;;19.67;5.70;;;;;;;14.37;100.00;99707.89;2243519;79;20941;-68
2022/08/11 05:01:47;;;;;;;20.52;5.28;;;;;;;15.53;100.00;99708.34;2252057;77;21007;-71
2022/08/11 05:07:52;;;;;;;19.77;5.75;;;;;;;16.03;100.00;99713.34;2250958;77;21013;-70
2022/08/11 05:10:54;;;;;;;20.15;5.45;;;;;;;16.24;100.00;99720.23;2281222;77;22265;-72
2022/08/11 05:35:18;;;;;;;20.85;6.15;;;;;;;18.00;100.00;99724.58;2259997;78;21708;-72
2022/08/11 05:58:15;;;;;;;20.23;6.22;;;;;;;19.35;100.00;99727.99;2262924;77;20986;-80
2022/08/11 06:01:16;;;;;;;18.57;5.83;;;;;;;19.39;100.00;99729.90;2252581;78;21530;-80
2022/08/11 06:04:17;;;;;;;19.07;5.78;;;;;;;19.52;100.00;99723.92;2246059;79;21016;-72
2022/08/11 06:07:18;;;;;;;22.82;6.50;;;;;;;19.61;100.00;99730.75;2249006;78;21055;-71
2022/08/11 06:10:18;;;;;;;19.87;5.95;;;;;;;19.69;100.00;99722.47;2256864;78;20997;-80
2022/08/11 06:13:18;;;;;;;20.62;5.40;;;;;;;19.69;100.00;99722.47;2245492;79;21464;-80
2022/08/11 06:16:19;;;;;;;20.43;5.33;;;;;;;19.90;100.00;99730.48;2229900;79;21451;-80
2022/08/11 06:19:21;;;;;;;22.40;5.95;;;;;;;19.99;100.00;99728.84;2246247;79;20989;-81
2022/08/11 06:22:22;;;;;;;18.55;4.75;;;;;;;20.23;100.00;99725.88;2217007;78;21032;-81
2022/08/11 06:25:23;;;;;;;18.25;5.53;;;;;;;20.40;100.00;99727.55;2216462;79;21024;-81
2022/08/11 06:28:24;;;;;;;22.27;5.53;;;;;;;20.61;100.00;99730.14;2238497;79;21056;-82
2022/08/11 06:31:25;;;;;;;17.45;4.70;;;;;;;20.84;100.00;99726.78;2234862;79;20996;-81
2022/08/11 06:34:25;;;;;;;15.25;4.42;;;;;;;21.04;100.00;99728.16;2251053;78;20997;-82
2022/08/11 06:37:27;;;;;;;16.48;4.83;;;;;;;21.26;100.00;99731.89;2229376;79;21498;-82
2022/08/11 06:40:28;;;;;;;14.18;4.50;;;;;;;21.46;100.00;99725.20;2233054;79;20977;-79
2022/08/11 06:43:29;;;;;;;12.88;4.12;;;;;;;21.68;100.00;99721.89;2242633;79;20992;-83
2022/08/11 06:46:29;;;;;;;14.73;3.97;;;;;;;21.87;99.91;99726.37;2240453;79;21468;-83
2022/08/11 06:52:32;;;;;;;13.70;3.80;;;;;;;22.38;94.09;99722.40;2216515;79;21084;-84
2022/08/11 07:01:37;;;;;;;9.90;3.10;;;;;;;23.00;90.48;99714.58;2219103;79;21035;-83
2022/08/11 07:04:37;;;;;;;11.37;2.80;;;;;;;23.21;89.50;99709.45;2249368;79;21526;-83
2022/08/11 07:16:45;;;;;;;12.07;2.72;;;;;;;23.58;73.43;99702.22;2218417;79;21000;-83
2022/08/11 07:28:54;;;;;;;10.38;2.30;;;;;;;24.11;71.26;99707.94;2215414;79;21000;-83
2022/08/11 07:31:54;;;;;;;8.48;2.60;;;;;;;23.74;70.43;99713.03;2215697;78;21673;-84
2022/08/11 07:34:55;;;;;;;8.50;2.40;;;;;;;23.77;68.98;99709.20;2245268;79;20965;-83
2022/08/11 07:37:55;;;;;;;8.27;2.60;;;;;;;23.86;64.99;99704.23;2248791;79;21009;-84
2022/08/11 07:40:56;;;;;;;6.70;2.10;;;;;;;23.96;68.83;99713.02;2250509;79;21079;-83
2022/08/11 07:44:07;;;;;;;9.13;2.67;;;;;;;24.02;67.16;99711.55;2236761;79;21123;-82
2022/08/11 07:53:03;;;;;;;7.95;2.10;;;;;;;24.48;60.86;99712.59;2218109;78;21063;-82
2022/08/11 07:56:05;;;;;;;5.87;2.27;;;;;;;24.39;63.27;99707.23;2249797;79;20992;-77
2022/08/11 08:20:21;;;;;;;9.08;2.15;;;;;;;24.79;55.28;99694.12;2227977;79;21001;-82
2022/08/11 08:23:31;;;;;;;7.67;2.30;;;;;;;24.71;58.32;99696.30;2247345;79;21031;-84
2022/08/11 08:32:29;;;;;;;8.15;2.25;;;;;;;25.27;56.89;99684.10;2221019;79;21001;-81
2022/08/11 08:35:30;;;;;;;6.37;1.87;;;;;;;25.51;53.49;99681.43;2236790;79;21028;-84
2022/08/11 08:38:30;;;;;;;10.60;2.40;;;;;;;25.84;51.48;99681.89;2239524;79;21566;-84
2022/08/11 08:41:31;;;;;;;6.70;2.40;;;;;;;26.04;51.80;99681.02;2239730;79;20996;-84
2022/08/11 08:44:31;;;;;;;9.37;2.70;;;;;;;25.99;53.08;99680.66;2235768;79;20993;-83
2022/08/11 08:47:31;;;;;;;8.30;2.27;;;;;;;25.74;53.20;99673.50;2235021;79;20984;-84
2022/08/11 08:53:34;;;;;;;12.88;2.50;;;;;;;25.87;58.11;99679.67;2213988;79;20997;-80
2022/08/11 08:56:35;;;;;;;9.03;2.10;;;;;;;25.88;50.22;99666.59;2242067;79;20997;-84
2022/08/11 08:59:36;;;;;;;9.13;2.40;;;;;;;25.79;51.45;99667.63;2232628;78;21004;-84
2022/08/11 09:02:37;;;;;;;16.13;2.50;;;;;;;25.54;50.64;99671.72;2242782;79;21044;-82
2022/08/11 09:05:37;;;;;;;8.13;2.20;;;;;;;25.36;53.82;99658.98;2244043;79;21012;-83
2022/08/11 09:08:39;;;;;;;5.87;2.03;;;;;;;25.07;51.02;99666.49;2240961;79;21032;-84
2022/08/11 09:17:45;;;;;;;9.13;2.17;;;;;;;25.78;52.08;99662.44;2208529;79;20992;-85
2022/08/11 09:20:45;;;;;;;4.90;1.90;;;;;;;26.11;53.64;99661.33;2245243;79;21518;-85
2022/08/11 09:29:50;;;;;;;8.33;1.85;;;;;;;26.22;47.59;99662.81;2211398;79;21013;-84
2022/08/11 09:32:52;;;;;;;4.10;1.57;;;;;;;25.79;47.80;99662.26;2225321;79;21552;-85
2022/08/11 09:35:52;;;;;;;6.53;1.85;;;;;;;25.71;47.23;99659.58;2242773;79;20992;-82
2022/08/11 09:41:55;;;;;;;3.77;1.27;;;;;;;25.70;50.09;99656.07;2215272;79;21502;-84
2022/08/11 09:44:56;;;;;;;5.47;1.77;;;;;;;25.83;48.29;99653.33;2240457;79;21000;-85
2022/08/11 09:47:56;;;;;;;5.28;1.67;;;;;;;25.61;48.69;99652.23;2230290;79;21028;-80
2022/08/11 09:50:57;;;;;;;5.60;1.70;;;;;;;25.48;48.99;99647.38;2239557;79;20998;-84
2022/08/11 09:53:58;;;;;;;5.40;1.47;;;;;;;25.32;50.11;99648.23;2285406;77;21494;-73
2022/08/11 10:00:01;;;;;;;5.00;1.62;;;;;;;25.08;48.92;99635.98;2256740;77;20104;-85
2022/08/11 10:03:05;;;;;;;6.27;1.37;;;;;;;25.79;45.33;99634.53;2281476;77;21063;-83
2022/08/11 10:09:06;;;;;;;3.90;1.27;;;;;;;26.51;43.54;99627.70;2262707;77;21479;-84
2022/08/11 10:12:07;;;;;;;2.63;1.10;;;;;;;26.90;43.22;99611.98;2285860;77;21020;-79
2022/08/11 10:21:12;;;;;;;7.75;1.20;;;;;;;27.27;43.76;99608.97;2249400;77;20981;-75
2022/08/11 10:27:15;;;;;;;3.17;1.22;;;;;;;26.42;42.64;99609.92;2255925;77;21522;-83
2022/08/11 10:36:20;;;;;;;4.83;1.55;;;;;;;26.56;42.52;99598.91;2262371;78;20996;-76
2022/08/11 10:39:20;;;;;;;4.93;1.20;;;;;;;26.58;43.17;99588.31;2237747;79;21049;-83
2022/08/11 10:48:25;;;;;;;3.10;1.17;;;;;;;26.68;43.35;99571.97;2205019;79;21024;-84
2022/08/11 11:00:33;;;;;;;6.35;1.32;;;;;;;26.70;42.22;99555.64;2208313;79;21032;-83
2022/08/11 11:03:34;;;;;;;3.40;1.07;;;;;;;26.23;40.86;99558.30;2239660;79;21479;-83
2022/08/11 11:06:34;;;;;;;2.63;1.30;;;;;;;26.45;42.20;99547.22;2238023;79;21043;-82
2022/08/11 11:09:35;;;;;;;6.03;1.57;;;;;;;26.97;41.45;99556.41;2240658;79;21039;-82
2022/08/11 11:18:40;;;;;;;6.37;2.08;;;;;;;26.20;43.08;99546.53;2204612;79;21528;-75
2022/08/11 11:21:40;;;;;;;3.27;1.70;;;;;;;27.05;41.68;99539.36;2244599;79;20984;-79
2022/08/11 11:24:41;;;;;;;10.67;1.40;;;;;;;26.84;41.34;99537.36;2241455;79;21000;-80
2022/08/11 11:27:41;;;;;;;6.67;1.70;;;;;;;26.14;42.00;99534.33;2243084;79;21080;-75
2022/08/11 11:30:42;;;;;;;2.27;1.03;;;;;;;25.85;44.05;99532.59;2240746;79;21496;-82
2022/08/11 11:33:42;;;;;;;5.30;1.37;;;;;;;26.47;44.79;99529.55;2235870;79;20981;-81
2022/08/11 11:36:43;;;;;;;3.83;1.33;;;;;;;27.07;42.48;99525.72;2237537;79;21625;-82
2022/08/11 11:39:44;;;;;;;1.57;0.95;;;;;;;27.46;39.23;99536.24;2236086;79;21534;-82
2022/08/11 11:42:44;;;;;;;5.10;1.73;;;;;;;27.13;39.25;99519.06;2247071;79;20977;-83
2022/08/11 11:45:45;;;;;;;2.67;1.00;;;;;;;27.04;40.60;99526.91;2248457;79;21028;-83
2022/08/11 11:48:45;;;;;;;4.60;1.23;;;;;;;27.80;37.66;99525.89;2241284;79;20989;-82
2022/08/11 11:51:46;;;;;;;1.65;1.20;;;;;;;28.36;37.85;99519.92;2241305;79;21177;-83
2022/08/11 11:54:49;;;;;;;2.55;0.90;;;;;;;28.67;36.27;99510.14;2240573;79;21131;-71
2022/08/11 12:03:54;;;;;;;5.50;1.45;;;;;;;28.41;39.18;99512.59;2200197;79;21008;-83
2022/08/11 12:08:08;;;;;;;7.13;1.57;;;;;;;27.42;36.81;99510.70;2243693;79;20962;-83
2022/08/11 12:09:56;;;;;;;5.25;1.82;;;;;;;26.47;39.84;99515.28;2209489;79;21029;-81
2022/08/11 12:16:02;;;;;;;7.25;1.80;;;;;;;24.56;53.40;99559.28;2214483;79;20997;-84
2022/08/11 12:19:02;;;;;;;3.77;1.50;;;;;;;23.42;63.84;99563.72;2210164;79;21566;-85
2022/08/11 12:28:07;;;;;;;9.53;2.12;;;;;;;21.93;71.98;99569.05;2212391;79;20981;-74
2022/08/11 12:31:08;;;;;;;11.93;1.90;;;;;;;21.66;80.42;99575.23;2241047;79;21056;-84
2022/08/11 12:34:09;;;;;;;10.08;2.27;;;;;;;21.41;84.65;99580.70;2242064;79;21047;-85
2022/08/11 12:37:11;;;;;;;5.47;1.90;;;;;;;21.06;85.71;99578.16;2237366;79;20984;-86
2022/08/11 12:46:17;;;;;;;3.98;1.37;;;;;;;20.48;85.94;99580.34;2217460;79;20986;-85
2022/08/11 12:52:20;;;;;;;2.60;1.45;;;;;;;20.41;86.86;99598.70;2206141;79;21004;-86
2022/08/11 12:58:14;;;;;;;7.93;1.63;;;;;;;20.23;88.62;99591.88;2237922;79;21471;-76
2022/08/11 12:58:23;;;;;;;3.85;1.45;;;;;;;20.30;92.07;99603.67;2215820;79;21001;-83
2022/08/11 13:07:28;;;;;;;6.22;1.37;;;;;;;21.71;88.33;99590.32;2210951;79;21518;-83
2022/08/11 13:13:31;;;;;;;7.58;1.70;;;;;;;22.93;84.97;99574.91;2230069;79;21652;-83
2022/08/11 13:17:19;;;;;;;8.07;1.60;;;;;;;23.26;81.94;99577.84;2239220;79;21005;-83
2022/08/11 13:19:34;;;;;;;4.65;1.82;;;;;;;23.64;81.84;99571.72;2219010;78;21543;-81
2022/08/11 13:22:34;;;;;;;7.87;1.87;;;;;;;24.23;82.87;99570.45;2245684;79;20988;-81
2022/08/11 13:25:34;;;;;;;4.87;1.90;;;;;;;24.65;80.26;99563.34;2237807;79;20954;-78
2022/08/11 13:28:35;;;;;;;8.07;1.80;;;;;;;25.03;78.08;99562.34;2244557;79;21012;-84
2022/08/11 13:31:36;;;;;;;7.20;2.20;;;;;;;25.33;74.84;99549.22;2233809;79;20972;-66
2022/08/11 13:34:40;;;;;;;4.70;1.90;;;;;;;25.65;74.80;99558.20;2242929;79;21286;-84
2022/08/11 13:37:38;;;;;;;4.03;1.62;;;;;;;25.90;75.30;99552.21;2209286;79;21036;-83
2022/08/11 13:40:39;;;;;;;8.90;1.90;;;;;;;25.85;62.74;99559.98;2245825;79;20988;-85
2022/08/11 13:43:40;;;;;;;4.50;1.67;;;;;;;25.68;66.86;99557.34;2240414;79;21000;-81
2022/08/11 13:46:41;;;;;;;7.45;1.98;;;;;;;26.20;66.79;99557.28;2246943;79;21000;-82
2022/08/11 13:49:42;;;;;;;6.00;1.80;;;;;;;27.02;62.16;99552.33;2243259;79;21074;-79
2022/08/11 13:52:42;;;;;;;10.40;2.33;;;;;;;27.38;61.44;99542.23;2242104;79;21042;-83
2022/08/11 13:55:43;;;;;;;6.13;1.80;;;;;;;26.72;63.55;99555.80;2242796;79;20985;-85
2022/08/11 13:58:43;;;;;;;14.87;2.33;;;;;;;25.55;65.15;99539.09;2235362;79;20965;-83
2022/08/11 14:01:44;;;;;;;19.97;2.90;;;;;;;24.66;69.47;99549.77;2240666;79;21490;-84
2022/08/11 14:04:44;;;;;;;8.83;2.50;;;;;;;24.18;73.85;99556.73;2244992;79;20984;-77
2022/08/11 14:07:45;;;;;;;18.10;3.13;;;;;;;23.71;75.91;99558.03;2241385;79;20980;-85
2022/08/11 14:10:45;;;;;;;15.50;3.10;;;;;;;23.14;78.28;99550.04;2243234;79;21032;-85
2022/08/11 14:13:46;;;;;;;12.87;2.80;;;;;;;23.04;81.33;99549.24;2242468;79;20996;-85
2022/08/11 14:16:46;;;;;;;10.53;2.70;;;;;;;23.69;84.07;99546.63;2241060;79;20996;-79
2022/08/11 14:19:47;;;;;;;10.03;2.60;;;;;;;24.31;84.01;99546.84;2239419;79;21548;-85
2022/08/11 14:22:47;;;;;;;10.80;2.23;;;;;;;24.80;82.05;99532.17;2243923;79;21100;-86
2022/08/11 14:31:52;;;;;;;9.88;2.70;;;;;;;26.17;75.27;99517.32;2211086;79;21008;-85
2022/08/11 14:34:53;;;;;;;5.30;2.00;;;;;;;26.52;72.48;99506.14;2242025;79;21097;-85
2022/08/11 14:37:53;;;;;;;10.00;1.97;;;;;;;26.63;66.74;99504.38;2239504;79;20989;-79
2022/08/11 14:50:02;;;;;;;6.17;2.17;;;;;;;27.00;66.51;99503.24;2210276;79;21071;-85
2022/08/11 14:53:03;;;;;;;5.35;1.85;;;;;;;27.06;65.22;99506.53;2243287;79;20957;-85
2022/08/11 14:59:06;;;;;;;7.25;1.90;;;;;;;27.19;69.64;99499.17;2223912;79;20106;-86
2022/08/11 15:05:09;;;;;;;8.00;2.30;;;;;;;27.59;65.88;99492.48;2213707;79;21028;-85
2022/08/11 15:08:10;;;;;;;6.47;2.17;;;;;;;27.76;66.78;99480.16;2231621;79;21502;-85
2022/08/11 15:12:07;;;;;;;6.87;1.97;;;;;;;27.99;67.54;99478.68;2238071;79;20993;-85
2022/08/11 15:14:13;;;;;;;7.72;2.22;;;;;;;28.31;67.72;99480.02;2219009;79;21029;-85
2022/08/11 15:17:13;;;;;;;6.90;2.20;;;;;;;28.55;66.45;99485.20;2244276;79;21067;-84
2022/08/11 15:26:18;;;;;;;10.45;2.50;;;;;;;32.32;56.79;99494.45;2214555;78;20985;-81
2022/08/11 15:38:24;;;;;;;4.83;2.20;;;;;;;32.08;50.53;99495.49;2216531;79;21499;-84
2022/08/11 15:47:29;;;;;;;6.55;2.20;;;;;;;34.73;44.46;99485.66;2215517;79;21017;-84
2022/08/11 15:50:29;;;;;;;7.67;2.30;;;;;;;36.04;42.60;99495.28;2233963;79;21045;-84
2022/08/11 15:53:29;;;;;;;7.33;2.12;;;;;;;36.90;40.27;99481.98;2244142;79;20985;-85
2022/08/11 15:56:30;;;;;;;6.45;2.15;;;;;;;35.89;40.29;99483.55;2238226;79;20973;-81
2022/08/11 16:05:35;;;;;;;2.65;1.20;;;;;;;36.49;33.31;99471.77;2197886;79;21025;-78
2022/08/11 16:08:36;;;;;;;4.30;1.30;;;;;;;36.19;31.84;99469.33;2242101;79;20994;-79
2022/08/11 16:11:36;;;;;;;4.72;1.17;;;;;;;34.51;33.28;99464.45;2241569;79;21079;-78
2022/08/11 16:17:39;;;;;;;8.60;2.08;;;;;;;30.51;36.00;99456.52;2218645;79;21032;-82
2022/08/11 16:20:39;;;;;;;;;;;;;;;29.54;39.10;99468.05;2236142;79;20993;-75
2022/08/11 16:23:40;;;;;;;3.80;1.65;;;;;;;29.18;41.26;99471.27;2238506;79;20102;-76
2022/08/11 16:26:40;;;;;;;4.43;1.50;;;;;;;28.21;42.77;99466.55;2241179;79;21040;-78
2022/08/11 16:29:41;;;;;;;7.33;1.83;;;;;;;27.14;46.07;99479.02;2242348;79;21133;-64
2022/08/11 16:32:42;;;;;;;9.15;2.10;;;;;;;26.52;46.95;99489.52;2237874;79;21023;-84
2022/08/11 16:38:44;;;;;;;6.03;2.47;;;;;;;25.77;49.36;99497.70;2219034;78;21108;-82
2022/08/11 16:47:49;;;;;;;8.33;2.83;;;;;;;25.55;53.16;99508.20;2217844;79;21004;-75
2022/08/11 16:50:50;;;;;;;10.40;3.40;;;;;;;26.60;52.91;99504.74;2243980;79;21032;-84
2022/08/11 16:53:50;;;;;;;7.53;2.50;;;;;;;27.62;52.13;99511.48;2237613;78;21001;-82
2022/08/11 16:56:51;;;;;;;9.83;2.60;;;;;;;28.65;50.29;99502.77;2240847;79;20989;-83
2022/08/11 16:59:51;;;;;;;4.77;1.93;;;;;;;30.57;47.88;99501.72;2240278;79;21503;-83
2022/08/11 17:15:01;;;;;;;11.22;2.65;;;;;;;35.55;37.21;99486.14;2197642;78;20972;-75
2022/08/11 17:18:02;;;;;;;15.58;5.17;;;;;;;35.62;36.26;99481.09;2226411;79;21004;-79
2022/08/11 17:21:02;;;;;;;9.80;2.90;;;;;;;35.36;35.98;99475.13;2212800;79;21480;-81
2022/08/11 17:24:03;;;;;;;8.70;2.60;;;;;;;35.40;36.03;99479.00;2210910;79;21504;-79
2022/08/11 17:27:04;;;;;;;6.22;2.40;;;;;;;35.38;35.44;99477.06;2205632;80;21108;-82
2022/08/11 17:30:05;;;;;;;9.95;2.40;;;;;;;35.25;35.27;99480.03;2238470;78;21034;-80
2022/08/11 17:36:07;;;;;;;12.43;2.40;;;;;;;33.77;35.69;99481.56;2217927;79;21031;-82
2022/08/11 17:39:08;;;;;;;8.85;2.62;;;;;;;32.61;37.04;99482.95;2197922;80;20999;-80
2022/08/11 17:59:50;;;;;;;13.98;3.98;;;;;;;30.11;40.33;99490.27;2237206;79;20997;-82
2022/08/11 18:00:24;;;;;;;25.00;7.58;;;;;;;28.54;42.79;99493.82;2208280;78;21105;-82
2022/08/11 18:06:28;;;;;;;14.15;3.52;;;;;;;26.61;46.35;99507.77;2195735;80;21551;-83
